sensor_id;sensor_type;location;lat;lon;timestamp;temperature;humidity
10388;DHT22;5240;51.128;4.566;2022-12-18T00:02:19;-4.20;99.90
10388;DHT22;5240;51.128;4.566;2022-12-18T00:04:47;-4.20;99.90
10388;DHT22;5240;51.128;4.566;2022-12-18T00:07:14;-4.20;99.90
10388;DHT22;5240;51.128;4.566;2022-12-18T00:09:41;-4.20;99.90
10388;DHT22;5240;51.128;4.566;2022-12-18T00:12:09;-4.20;99.90
10388;DHT22;5240;51.128;4.566;2022-12-18T00:14:36;-4.20;99.90
10388;DHT22;5240;51.128;4.566;2022-12-18T00:17:03;-4.20;99.90
10388;DHT22;5240;51.128;4.566;2022-12-18T00:19:30;-4.30;99.90
10388;DHT22;5240;51.128;4.566;2022-12-18T00:21:57;-4.30;99.90
10388;DHT22;5240;51.128;4.566;2022-12-18T00:24:24;-4.30;99.90
10388;DHT22;5240;51.128;4.566;2022-12-18T00:26:51;-4.30;99.90
10388;DHT22;5240;51.128;4.566;2022-12-18T00:29:20;-4.40;99.90
10388;DHT22;5240;51.128;4.566;2022-12-18T00:31:47;-4.40;99.90
10388;DHT22;5240;51.128;4.566;2022-12-18T00:34:14;-4.40;99.90
10388;DHT22;5240;51.128;4.566;2022-12-18T00:36:41;-4.40;99.90
10388;DHT22;5240;51.128;4.566;2022-12-18T00:39:10;-4.40;99.90
10388;DHT22;5240;51.128;4.566;2022-12-18T00:41:37;-4.50;99.90
10388;DHT22;5240;51.128;4.566;2022-12-18T00:44:37;-4.50;99.90
10388;DHT22;5240;51.128;4.566;2022-12-18T00:47:04;-4.50;99.90
10388;DHT22;5240;51.128;4.566;2022-12-18T00:49:31;-4.50;99.90
10388;DHT22;5240;51.128;4.566;2022-12-18T00:51:58;-4.50;99.90
10388;DHT22;5240;51.128;4.566;2022-12-18T00:54:26;-4.50;99.90
10388;DHT22;5240;51.128;4.566;2022-12-18T00:56:53;-4.50;99.90
10388;DHT22;5240;51.128;4.566;2022-12-18T00:59:20;-4.50;99.90
10388;DHT22;5240;51.128;4.566;2022-12-18T01:01:49;-4.50;99.90
10388;DHT22;5240;51.128;4.566;2022-12-18T01:04:16;-4.60;99.90
10388;DHT22;5240;51.128;4.566;2022-12-18T01:06:43;-4.60;99.90
10388;DHT22;5240;51.128;4.566;2022-12-18T01:09:10;-4.60;99.90
10388;DHT22;5240;51.128;4.566;2022-12-18T01:11:37;-4.60;99.90
10388;DHT22;5240;51.128;4.566;2022-12-18T01:14:04;-4.60;99.90
10388;DHT22;5240;51.128;4.566;2022-12-18T01:16:31;-4.60;99.90
10388;DHT22;5240;51.128;4.566;2022-12-18T01:18:59;-4.60;99.90
10388;DHT22;5240;51.128;4.566;2022-12-18T01:21:27;-4.60;99.90
10388;DHT22;5240;51.128;4.566;2022-12-18T01:23:55;-4.60;99.90
10388;DHT22;5240;51.128;4.566;2022-12-18T01:26:24;-4.60;99.90
10388;DHT22;5240;51.128;4.566;2022-12-18T01:28:51;-4.60;99.90
10388;DHT22;5240;51.128;4.566;2022-12-18T01:31:20;-4.60;99.90
10388;DHT22;5240;51.128;4.566;2022-12-18T01:33:47;-4.60;99.90
10388;DHT22;5240;51.128;4.566;2022-12-18T01:36:18;-4.60;99.90
10388;DHT22;5240;51.128;4.566;2022-12-18T01:38:46;-4.70;99.90
10388;DHT22;5240;51.128;4.566;2022-12-18T01:41:14;-4.70;99.90
10388;DHT22;5240;51.128;4.566;2022-12-18T01:43:50;-4.70;99.90
10388;DHT22;5240;51.128;4.566;2022-12-18T01:46:19;-4.70;99.90
10388;DHT22;5240;51.128;4.566;2022-12-18T01:48:48;-4.70;99.90
10388;DHT22;5240;51.128;4.566;2022-12-18T01:51:18;-4.80;99.90
10388;DHT22;5240;51.128;4.566;2022-12-18T01:53:46;-4.80;99.90
10388;DHT22;5240;51.128;4.566;2022-12-18T01:56:15;-4.80;99.90
10388;DHT22;5240;51.128;4.566;2022-12-18T01:58:51;-4.80;99.90
10388;DHT22;5240;51.128;4.566;2022-12-18T02:01:21;-4.80;99.90
10388;DHT22;5240;51.128;4.566;2022-12-18T02:03:49;-4.80;99.90
10388;DHT22;5240;51.128;4.566;2022-12-18T02:06:21;-4.80;99.90
10388;DHT22;5240;51.128;4.566;2022-12-18T02:09:02;-4.80;99.90
10388;DHT22;5240;51.128;4.566;2022-12-18T02:11:41;-4.80;99.90
10388;DHT22;5240;51.128;4.566;2022-12-18T02:14:17;-4.70;99.90
10388;DHT22;5240;51.128;4.566;2022-12-18T02:16:50;-4.70;99.90
10388;DHT22;5240;51.128;4.566;2022-12-18T02:19:37;-4.70;99.90
10388;DHT22;5240;51.128;4.566;2022-12-18T02:22:19;-4.70;99.90
10388;DHT22;5240;51.128;4.566;2022-12-18T02:24:58;-4.70;99.90
10388;DHT22;5240;51.128;4.566;2022-12-18T02:27:30;-4.70;99.90
10388;DHT22;5240;51.128;4.566;2022-12-18T02:29:59;-4.80;99.90
10388;DHT22;5240;51.128;4.566;2022-12-18T02:32:31;-4.80;99.90
10388;DHT22;5240;51.128;4.566;2022-12-18T02:34:59;-4.70;99.90
10388;DHT22;5240;51.128;4.566;2022-12-18T02:37:29;-4.70;99.90
10388;DHT22;5240;51.128;4.566;2022-12-18T02:39:58;-4.70;99.90
10388;DHT22;5240;51.128;4.566;2022-12-18T02:42:29;-4.80;99.90
10388;DHT22;5240;51.128;4.566;2022-12-18T02:44:56;-4.80;99.90
10388;DHT22;5240;51.128;4.566;2022-12-18T02:47:26;-4.80;99.90
10388;DHT22;5240;51.128;4.566;2022-12-18T02:50:01;-4.80;99.90
10388;DHT22;5240;51.128;4.566;2022-12-18T02:52:34;-4.80;99.90
10388;DHT22;5240;51.128;4.566;2022-12-18T02:55:12;-4.80;99.90
10388;DHT22;5240;51.128;4.566;2022-12-18T02:57:45;-4.80;99.90
10388;DHT22;5240;51.128;4.566;2022-12-18T03:00:15;-4.80;99.90
10388;DHT22;5240;51.128;4.566;2022-12-18T03:02:46;-4.80;99.90
10388;DHT22;5240;51.128;4.566;2022-12-18T03:05:17;-4.80;99.90
10388;DHT22;5240;51.128;4.566;2022-12-18T03:07:50;-4.80;99.90
10388;DHT22;5240;51.128;4.566;2022-12-18T03:10:22;-4.80;99.90
10388;DHT22;5240;51.128;4.566;2022-12-18T03:12:56;-4.90;99.90
10388;DHT22;5240;51.128;4.566;2022-12-18T03:15:29;-4.90;99.90
10388;DHT22;5240;51.128;4.566;2022-12-18T03:18:02;-4.90;99.90
10388;DHT22;5240;51.128;4.566;2022-12-18T03:20:32;-4.90;99.90
10388;DHT22;5240;51.128;4.566;2022-12-18T03:23:06;-4.80;99.90
10388;DHT22;5240;51.128;4.566;2022-12-18T03:25:35;-4.90;99.90
10388;DHT22;5240;51.128;4.566;2022-12-18T03:28:07;-4.90;99.90
10388;DHT22;5240;51.128;4.566;2022-12-18T03:30:38;-4.90;99.90
10388;DHT22;5240;51.128;4.566;2022-12-18T03:33:10;-4.90;99.90
10388;DHT22;5240;51.128;4.566;2022-12-18T03:35:41;-4.90;99.90
10388;DHT22;5240;51.128;4.566;2022-12-18T03:38:08;-4.80;99.90
10388;DHT22;5240;51.128;4.566;2022-12-18T03:40:43;-4.80;99.90
10388;DHT22;5240;51.128;4.566;2022-12-18T03:43:18;-4.80;99.90
10388;DHT22;5240;51.128;4.566;2022-12-18T03:45:52;-4.90;99.90
10388;DHT22;5240;51.128;4.566;2022-12-18T03:48:25;-4.90;99.90
10388;DHT22;5240;51.128;4.566;2022-12-18T03:50:56;-4.90;99.90
10388;DHT22;5240;51.128;4.566;2022-12-18T03:53:29;-4.80;99.90
10388;DHT22;5240;51.128;4.566;2022-12-18T03:56:00;-4.80;99.90
10388;DHT22;5240;51.128;4.566;2022-12-18T03:58:32;-4.80;99.90
10388;DHT22;5240;51.128;4.566;2022-12-18T04:01:03;-4.80;99.90
10388;DHT22;5240;51.128;4.566;2022-12-18T04:03:32;-4.90;99.90
10388;DHT22;5240;51.128;4.566;2022-12-18T04:06:01;-4.90;99.90
10388;DHT22;5240;51.128;4.566;2022-12-18T04:08:29;-4.80;99.90
10388;DHT22;5240;51.128;4.566;2022-12-18T04:10:56;-4.80;99.90
10388;DHT22;5240;51.128;4.566;2022-12-18T04:13:24;-4.70;99.90
10388;DHT22;5240;51.128;4.566;2022-12-18T04:15:52;-4.80;99.90
10388;DHT22;5240;51.128;4.566;2022-12-18T04:18:20;-4.70;99.90
10388;DHT22;5240;51.128;4.566;2022-12-18T04:20:47;-4.80;99.90
10388;DHT22;5240;51.128;4.566;2022-12-18T04:23:14;-4.80;99.90
10388;DHT22;5240;51.128;4.566;2022-12-18T04:25:41;-4.80;99.90
10388;DHT22;5240;51.128;4.566;2022-12-18T04:28:08;-4.80;99.90
10388;DHT22;5240;51.128;4.566;2022-12-18T04:30:35;-4.80;99.90
10388;DHT22;5240;51.128;4.566;2022-12-18T04:33:03;-4.90;99.90
10388;DHT22;5240;51.128;4.566;2022-12-18T04:35:30;-4.90;99.90
10388;DHT22;5240;51.128;4.566;2022-12-18T04:37:57;-4.90;99.90
10388;DHT22;5240;51.128;4.566;2022-12-18T04:40:24;-4.90;99.90
10388;DHT22;5240;51.128;4.566;2022-12-18T04:42:51;-4.90;99.90
10388;DHT22;5240;51.128;4.566;2022-12-18T04:45:18;-4.90;99.90
10388;DHT22;5240;51.128;4.566;2022-12-18T04:47:45;-4.90;99.90
10388;DHT22;5240;51.128;4.566;2022-12-18T04:50:14;-4.90;99.90
10388;DHT22;5240;51.128;4.566;2022-12-18T04:52:41;-5.00;99.90
10388;DHT22;5240;51.128;4.566;2022-12-18T04:55:08;-5.00;99.90
10388;DHT22;5240;51.128;4.566;2022-12-18T04:57:35;-5.00;99.90
10388;DHT22;5240;51.128;4.566;2022-12-18T05:00:03;-5.00;99.90
10388;DHT22;5240;51.128;4.566;2022-12-18T05:02:31;-4.90;99.90
10388;DHT22;5240;51.128;4.566;2022-12-18T05:04:58;-5.00;99.90
10388;DHT22;5240;51.128;4.566;2022-12-18T05:07:27;-5.00;99.90
10388;DHT22;5240;51.128;4.566;2022-12-18T05:09:54;-5.00;99.90
10388;DHT22;5240;51.128;4.566;2022-12-18T05:12:23;-5.00;99.90
10388;DHT22;5240;51.128;4.566;2022-12-18T05:14:50;-5.00;99.90
10388;DHT22;5240;51.128;4.566;2022-12-18T05:17:18;-5.00;99.90
10388;DHT22;5240;51.128;4.566;2022-12-18T05:19:45;-5.00;99.90
10388;DHT22;5240;51.128;4.566;2022-12-18T05:22:12;-5.10;99.90
10388;DHT22;5240;51.128;4.566;2022-12-18T05:24:40;-5.10;99.90
10388;DHT22;5240;51.128;4.566;2022-12-18T05:27:07;-5.10;99.90
10388;DHT22;5240;51.128;4.566;2022-12-18T05:29:34;-5.10;99.90
10388;DHT22;5240;51.128;4.566;2022-12-18T05:32:02;-5.10;99.90
10388;DHT22;5240;51.128;4.566;2022-12-18T05:34:29;-5.10;99.90
10388;DHT22;5240;51.128;4.566;2022-12-18T05:36:55;-5.00;99.90
10388;DHT22;5240;51.128;4.566;2022-12-18T05:39:22;-5.00;99.90
10388;DHT22;5240;51.128;4.566;2022-12-18T05:41:51;-5.10;99.90
10388;DHT22;5240;51.128;4.566;2022-12-18T05:44:18;-5.10;99.90
10388;DHT22;5240;51.128;4.566;2022-12-18T05:46:45;-5.10;99.90
10388;DHT22;5240;51.128;4.566;2022-12-18T05:49:12;-5.10;99.90
10388;DHT22;5240;51.128;4.566;2022-12-18T05:51:39;-5.10;99.90
10388;DHT22;5240;51.128;4.566;2022-12-18T05:54:06;-5.10;99.90
10388;DHT22;5240;51.128;4.566;2022-12-18T05:56:33;-5.20;99.90
10388;DHT22;5240;51.128;4.566;2022-12-18T05:59:01;-5.20;99.90
10388;DHT22;5240;51.128;4.566;2022-12-18T06:01:28;-5.20;99.90
10388;DHT22;5240;51.128;4.566;2022-12-18T06:03:55;-5.20;99.90
10388;DHT22;5240;51.128;4.566;2022-12-18T06:06:24;-5.20;99.90
10388;DHT22;5240;51.128;4.566;2022-12-18T06:08:52;-5.30;99.90
10388;DHT22;5240;51.128;4.566;2022-12-18T06:11:22;-5.30;99.90
10388;DHT22;5240;51.128;4.566;2022-12-18T06:13:50;-5.30;99.90
10388;DHT22;5240;51.128;4.566;2022-12-18T06:16:19;-5.30;99.90
10388;DHT22;5240;51.128;4.566;2022-12-18T06:18:46;-5.40;99.90
10388;DHT22;5240;51.128;4.566;2022-12-18T06:21:13;-5.40;99.90
10388;DHT22;5240;51.128;4.566;2022-12-18T06:23:40;-5.40;99.90
10388;DHT22;5240;51.128;4.566;2022-12-18T06:26:09;-5.30;99.90
10388;DHT22;5240;51.128;4.566;2022-12-18T06:28:37;-5.30;99.90
10388;DHT22;5240;51.128;4.566;2022-12-18T06:31:05;-5.30;99.90
10388;DHT22;5240;51.128;4.566;2022-12-18T06:33:35;-5.40;99.90
10388;DHT22;5240;51.128;4.566;2022-12-18T06:36:04;-5.30;99.90
10388;DHT22;5240;51.128;4.566;2022-12-18T06:38:31;-5.30;99.90
10388;DHT22;5240;51.128;4.566;2022-12-18T06:40:58;-5.30;99.90
10388;DHT22;5240;51.128;4.566;2022-12-18T06:43:25;-5.30;99.90
10388;DHT22;5240;51.128;4.566;2022-12-18T06:46:00;-5.40;99.90
10388;DHT22;5240;51.128;4.566;2022-12-18T06:48:27;-5.40;99.90
10388;DHT22;5240;51.128;4.566;2022-12-18T06:50:56;-5.40;99.90
10388;DHT22;5240;51.128;4.566;2022-12-18T06:53:23;-5.40;99.90
10388;DHT22;5240;51.128;4.566;2022-12-18T06:55:50;-5.40;99.90
10388;DHT22;5240;51.128;4.566;2022-12-18T06:58:17;-5.40;99.90
10388;DHT22;5240;51.128;4.566;2022-12-18T07:00:44;-5.40;99.90
10388;DHT22;5240;51.128;4.566;2022-12-18T07:03:12;-5.40;99.90
10388;DHT22;5240;51.128;4.566;2022-12-18T07:05:40;-5.40;99.90
10388;DHT22;5240;51.128;4.566;2022-12-18T07:08:08;-5.40;99.90
10388;DHT22;5240;51.128;4.566;2022-12-18T07:10:41;-5.40;99.90
10388;DHT22;5240;51.128;4.566;2022-12-18T07:13:08;-5.40;99.90
10388;DHT22;5240;51.128;4.566;2022-12-18T07:15:35;-5.50;99.90
10388;DHT22;5240;51.128;4.566;2022-12-18T07:18:03;-5.50;99.90
10388;DHT22;5240;51.128;4.566;2022-12-18T07:20:30;-5.50;99.90
10388;DHT22;5240;51.128;4.566;2022-12-18T07:22:57;-5.40;99.90
10388;DHT22;5240;51.128;4.566;2022-12-18T07:25:25;-5.40;99.90
10388;DHT22;5240;51.128;4.566;2022-12-18T07:27:53;-5.50;99.90
10388;DHT22;5240;51.128;4.566;2022-12-18T07:30:20;-5.50;99.90
10388;DHT22;5240;51.128;4.566;2022-12-18T07:32:47;-5.50;99.90
10388;DHT22;5240;51.128;4.566;2022-12-18T07:35:14;-5.50;99.90
10388;DHT22;5240;51.128;4.566;2022-12-18T07:37:41;-5.50;99.90
10388;DHT22;5240;51.128;4.566;2022-12-18T07:40:10;-5.50;99.90
10388;DHT22;5240;51.128;4.566;2022-12-18T07:42:38;-5.50;99.90
10388;DHT22;5240;51.128;4.566;2022-12-18T07:45:06;-5.50;99.90
10388;DHT22;5240;51.128;4.566;2022-12-18T07:47:34;-5.50;99.90
10388;DHT22;5240;51.128;4.566;2022-12-18T07:50:02;-5.50;99.90
10388;DHT22;5240;51.128;4.566;2022-12-18T07:52:29;-5.50;99.90
10388;DHT22;5240;51.128;4.566;2022-12-18T07:54:56;-5.50;99.90
10388;DHT22;5240;51.128;4.566;2022-12-18T07:57:23;-5.50;99.90
10388;DHT22;5240;51.128;4.566;2022-12-18T07:59:52;-5.40;99.90
10388;DHT22;5240;51.128;4.566;2022-12-18T08:02:19;-5.40;99.90
10388;DHT22;5240;51.128;4.566;2022-12-18T08:04:46;-5.40;99.90
10388;DHT22;5240;51.128;4.566;2022-12-18T08:07:13;-5.40;99.90
10388;DHT22;5240;51.128;4.566;2022-12-18T08:09:40;-5.40;99.90
10388;DHT22;5240;51.128;4.566;2022-12-18T08:12:09;-5.40;99.90
10388;DHT22;5240;51.128;4.566;2022-12-18T08:14:36;-5.40;99.90
10388;DHT22;5240;51.128;4.566;2022-12-18T08:17:05;-5.40;99.90
10388;DHT22;5240;51.128;4.566;2022-12-18T08:19:33;-5.40;99.90
10388;DHT22;5240;51.128;4.566;2022-12-18T08:22:00;-5.30;99.90
10388;DHT22;5240;51.128;4.566;2022-12-18T08:24:27;-5.20;99.90
10388;DHT22;5240;51.128;4.566;2022-12-18T08:26:54;-5.20;99.90
10388;DHT22;5240;51.128;4.566;2022-12-18T08:29:22;-5.20;99.90
10388;DHT22;5240;51.128;4.566;2022-12-18T08:31:49;-5.10;99.90
10388;DHT22;5240;51.128;4.566;2022-12-18T08:34:18;-5.10;99.90
10388;DHT22;5240;51.128;4.566;2022-12-18T08:36:45;-5.00;99.90
10388;DHT22;5240;51.128;4.566;2022-12-18T08:39:12;-4.90;99.90
10388;DHT22;5240;51.128;4.566;2022-12-18T08:41:39;-4.80;99.90
10388;DHT22;5240;51.128;4.566;2022-12-18T08:44:07;-4.70;99.90
10388;DHT22;5240;51.128;4.566;2022-12-18T08:46:51;-4.70;99.90
10388;DHT22;5240;51.128;4.566;2022-12-18T08:49:19;-4.60;99.90
10388;DHT22;5240;51.128;4.566;2022-12-18T08:51:47;-4.60;99.90
10388;DHT22;5240;51.128;4.566;2022-12-18T08:54:13;-4.50;99.90
10388;DHT22;5240;51.128;4.566;2022-12-18T08:56:40;-4.50;99.90
10388;DHT22;5240;51.128;4.566;2022-12-18T08:59:08;-4.50;99.90
10388;DHT22;5240;51.128;4.566;2022-12-18T09:01:35;-4.50;99.90
10388;DHT22;5240;51.128;4.566;2022-12-18T09:04:02;-4.50;99.90
10388;DHT22;5240;51.128;4.566;2022-12-18T09:06:31;-4.40;99.90
10388;DHT22;5240;51.128;4.566;2022-12-18T09:08:58;-4.20;99.90
10388;DHT22;5240;51.128;4.566;2022-12-18T09:11:27;-4.10;99.90
10388;DHT22;5240;51.128;4.566;2022-12-18T09:13:54;-4.00;99.90
10388;DHT22;5240;51.128;4.566;2022-12-18T09:16:23;-3.90;99.90
10388;DHT22;5240;51.128;4.566;2022-12-18T09:18:50;-3.80;99.90
10388;DHT22;5240;51.128;4.566;2022-12-18T09:21:19;-3.70;99.90
10388;DHT22;5240;51.128;4.566;2022-12-18T09:23:51;-3.70;99.90
10388;DHT22;5240;51.128;4.566;2022-12-18T09:26:18;-3.60;99.90
10388;DHT22;5240;51.128;4.566;2022-12-18T09:28:45;-3.60;99.90
10388;DHT22;5240;51.128;4.566;2022-12-18T09:31:12;-3.50;99.90
10388;DHT22;5240;51.128;4.566;2022-12-18T09:33:40;-3.50;99.90
10388;DHT22;5240;51.128;4.566;2022-12-18T09:36:09;-3.40;99.90
10388;DHT22;5240;51.128;4.566;2022-12-18T09:38:37;-3.30;99.90
10388;DHT22;5240;51.128;4.566;2022-12-18T09:41:23;-3.30;99.90
10388;DHT22;5240;51.128;4.566;2022-12-18T09:43:57;-3.20;99.90
10388;DHT22;5240;51.128;4.566;2022-12-18T09:46:28;-3.10;99.90
10388;DHT22;5240;51.128;4.566;2022-12-18T09:49:00;-3.10;99.90
10388;DHT22;5240;51.128;4.566;2022-12-18T09:51:29;-3.10;99.90
10388;DHT22;5240;51.128;4.566;2022-12-18T09:54:01;-3.10;99.90
10388;DHT22;5240;51.128;4.566;2022-12-18T09:56:35;-3.00;99.90
10388;DHT22;5240;51.128;4.566;2022-12-18T09:59:04;-2.90;99.90
10388;DHT22;5240;51.128;4.566;2022-12-18T10:01:32;-2.80;99.90
10388;DHT22;5240;51.128;4.566;2022-12-18T10:03:59;-2.80;99.90
10388;DHT22;5240;51.128;4.566;2022-12-18T10:06:31;-2.80;99.90
10388;DHT22;5240;51.128;4.566;2022-12-18T10:09:05;-2.80;99.90
10388;DHT22;5240;51.128;4.566;2022-12-18T10:11:43;-2.70;99.90
10388;DHT22;5240;51.128;4.566;2022-12-18T10:14:20;-2.70;99.90
10388;DHT22;5240;51.128;4.566;2022-12-18T10:16:58;-2.70;99.90
10388;DHT22;5240;51.128;4.566;2022-12-18T10:19:37;-2.60;99.90
10388;DHT22;5240;51.128;4.566;2022-12-18T10:22:15;-2.50;99.90
10388;DHT22;5240;51.128;4.566;2022-12-18T10:24:49;-2.50;99.90
10388;DHT22;5240;51.128;4.566;2022-12-18T10:27:24;-2.50;99.90
10388;DHT22;5240;51.128;4.566;2022-12-18T10:29:52;-2.50;99.90
10388;DHT22;5240;51.128;4.566;2022-12-18T10:32:21;-2.50;99.90
10388;DHT22;5240;51.128;4.566;2022-12-18T10:34:54;-2.50;99.90
10388;DHT22;5240;51.128;4.566;2022-12-18T10:37:23;-2.50;99.90
10388;DHT22;5240;51.128;4.566;2022-12-18T10:40:07;-2.40;99.90
10388;DHT22;5240;51.128;4.566;2022-12-18T10:42:36;-2.40;99.90
10388;DHT22;5240;51.128;4.566;2022-12-18T10:45:08;-2.40;99.90
10388;DHT22;5240;51.128;4.566;2022-12-18T10:47:35;-2.30;99.90
10388;DHT22;5240;51.128;4.566;2022-12-18T10:50:03;-2.30;99.90
10388;DHT22;5240;51.128;4.566;2022-12-18T10:52:30;-2.20;99.90
10388;DHT22;5240;51.128;4.566;2022-12-18T10:54:59;-2.10;99.90
10388;DHT22;5240;51.128;4.566;2022-12-18T10:57:32;-2.00;99.90
10388;DHT22;5240;51.128;4.566;2022-12-18T11:00:23;-1.90;99.90
10388;DHT22;5240;51.128;4.566;2022-12-18T11:02:51;-1.90;99.90
10388;DHT22;5240;51.128;4.566;2022-12-18T11:05:29;-1.80;99.90
10388;DHT22;5240;51.128;4.566;2022-12-18T11:07:58;-1.80;99.90
10388;DHT22;5240;51.128;4.566;2022-12-18T11:10:29;-1.80;99.90
10388;DHT22;5240;51.128;4.566;2022-12-18T11:13:12;-1.70;99.90
10388;DHT22;5240;51.128;4.566;2022-12-18T11:15:41;-1.70;99.90
10388;DHT22;5240;51.128;4.566;2022-12-18T11:18:17;-1.60;99.90
10388;DHT22;5240;51.128;4.566;2022-12-18T11:20:51;-1.40;99.90
10388;DHT22;5240;51.128;4.566;2022-12-18T11:23:20;-1.40;99.90
10388;DHT22;5240;51.128;4.566;2022-12-18T11:25:51;-1.40;99.90
10388;DHT22;5240;51.128;4.566;2022-12-18T11:28:35;-1.40;99.90
10388;DHT22;5240;51.128;4.566;2022-12-18T11:31:25;-1.40;99.90
10388;DHT22;5240;51.128;4.566;2022-12-18T11:34:04;-1.30;99.90
10388;DHT22;5240;51.128;4.566;2022-12-18T11:36:35;-1.20;99.90
10388;DHT22;5240;51.128;4.566;2022-12-18T11:39:09;-1.10;99.90
10388;DHT22;5240;51.128;4.566;2022-12-18T11:41:43;-1.00;99.90
10388;DHT22;5240;51.128;4.566;2022-12-18T11:44:42;-1.00;99.90
10388;DHT22;5240;51.128;4.566;2022-12-18T11:47:17;-1.10;99.90
10388;DHT22;5240;51.128;4.566;2022-12-18T11:49:48;-1.00;99.90
10388;DHT22;5240;51.128;4.566;2022-12-18T11:52:19;-1.00;99.90
10388;DHT22;5240;51.128;4.566;2022-12-18T11:54:52;-1.00;99.90
10388;DHT22;5240;51.128;4.566;2022-12-18T11:57:30;-1.00;99.90
10388;DHT22;5240;51.128;4.566;2022-12-18T12:00:04;-1.00;99.90
10388;DHT22;5240;51.128;4.566;2022-12-18T12:02:49;-1.00;99.90
10388;DHT22;5240;51.128;4.566;2022-12-18T12:05:28;-1.00;99.90
10388;DHT22;5240;51.128;4.566;2022-12-18T12:08:03;-0.90;99.90
10388;DHT22;5240;51.128;4.566;2022-12-18T12:10:43;-0.90;99.90
10388;DHT22;5240;51.128;4.566;2022-12-18T12:13:30;-1.00;99.90
10388;DHT22;5240;51.128;4.566;2022-12-18T12:16:08;-1.00;99.90
10388;DHT22;5240;51.128;4.566;2022-12-18T12:18:48;-1.00;99.90
10388;DHT22;5240;51.128;4.566;2022-12-18T12:21:25;-0.90;99.90
10388;DHT22;5240;51.128;4.566;2022-12-18T12:24:02;-0.90;99.90
10388;DHT22;5240;51.128;4.566;2022-12-18T12:26:41;-0.80;99.90
10388;DHT22;5240;51.128;4.566;2022-12-18T12:29:23;-0.80;99.90
10388;DHT22;5240;51.128;4.566;2022-12-18T12:32:19;-0.80;99.90
10388;DHT22;5240;51.128;4.566;2022-12-18T12:34:58;-0.80;99.90
10388;DHT22;5240;51.128;4.566;2022-12-18T12:37:38;-0.70;99.90
10388;DHT22;5240;51.128;4.566;2022-12-18T12:40:11;-0.70;99.90
10388;DHT22;5240;51.128;4.566;2022-12-18T12:42:46;-0.70;99.90
10388;DHT22;5240;51.128;4.566;2022-12-18T12:45:36;-0.70;99.90
10388;DHT22;5240;51.128;4.566;2022-12-18T12:48:13;-0.70;99.90
10388;DHT22;5240;51.128;4.566;2022-12-18T12:50:43;-0.70;99.90
10388;DHT22;5240;51.128;4.566;2022-12-18T12:53:21;-0.70;99.90
10388;DHT22;5240;51.128;4.566;2022-12-18T12:55:48;-0.60;99.90
10388;DHT22;5240;51.128;4.566;2022-12-18T12:58:26;-0.50;99.90
10388;DHT22;5240;51.128;4.566;2022-12-18T13:01:04;-0.40;99.90
10388;DHT22;5240;51.128;4.566;2022-12-18T13:03:42;-0.40;99.90
10388;DHT22;5240;51.128;4.566;2022-12-18T13:06:18;-0.40;99.90
10388;DHT22;5240;51.128;4.566;2022-12-18T13:08:55;-0.30;99.90
10388;DHT22;5240;51.128;4.566;2022-12-18T13:11:32;-0.40;99.90
10388;DHT22;5240;51.128;4.566;2022-12-18T13:14:26;-0.30;99.90
10388;DHT22;5240;51.128;4.566;2022-12-18T13:17:15;-0.30;99.90
10388;DHT22;5240;51.128;4.566;2022-12-18T13:19:42;-0.30;99.90
10388;DHT22;5240;51.128;4.566;2022-12-18T13:22:23;-0.30;99.90
10388;DHT22;5240;51.128;4.566;2022-12-18T13:24:51;-0.20;99.90
10388;DHT22;5240;51.128;4.566;2022-12-18T13:27:47;-0.20;99.90
10388;DHT22;5240;51.128;4.566;2022-12-18T13:30:47;-0.20;99.90
10388;DHT22;5240;51.128;4.566;2022-12-18T13:36:32;-0.20;99.90
10388;DHT22;5240;51.128;4.566;2022-12-18T13:39:26;-0.20;99.90
10388;DHT22;5240;51.128;4.566;2022-12-18T13:45:40;-0.20;99.90
10388;DHT22;5240;51.128;4.566;2022-12-18T13:48:20;-0.20;99.90
10388;DHT22;5240;51.128;4.566;2022-12-18T13:50:57;-0.20;99.90
10388;DHT22;5240;51.128;4.566;2022-12-18T13:53:29;-0.30;99.90
10388;DHT22;5240;51.128;4.566;2022-12-18T13:55:58;-0.20;99.90
10388;DHT22;5240;51.128;4.566;2022-12-18T13:58:25;-0.20;99.90
10388;DHT22;5240;51.128;4.566;2022-12-18T14:00:54;-0.20;99.90
10388;DHT22;5240;51.128;4.566;2022-12-18T14:03:23;-0.20;99.90
10388;DHT22;5240;51.128;4.566;2022-12-18T14:05:58;-0.20;99.90
10388;DHT22;5240;51.128;4.566;2022-12-18T14:08:32;-0.20;99.90
10388;DHT22;5240;51.128;4.566;2022-12-18T14:11:01;-0.20;99.90
10388;DHT22;5240;51.128;4.566;2022-12-18T14:13:31;-0.20;99.90
10388;DHT22;5240;51.128;4.566;2022-12-18T14:16:01;-0.20;99.90
10388;DHT22;5240;51.128;4.566;2022-12-18T14:18:33;-0.20;99.90
10388;DHT22;5240;51.128;4.566;2022-12-18T14:21:03;-0.20;99.90
10388;DHT22;5240;51.128;4.566;2022-12-18T14:23:33;-0.30;99.90
10388;DHT22;5240;51.128;4.566;2022-12-18T14:26:02;-0.20;99.90
10388;DHT22;5240;51.128;4.566;2022-12-18T14:28:30;-0.20;99.90
10388;DHT22;5240;51.128;4.566;2022-12-18T14:30:57;-0.30;99.90
10388;DHT22;5240;51.128;4.566;2022-12-18T14:33:25;-0.20;99.90
10388;DHT22;5240;51.128;4.566;2022-12-18T14:35:55;-0.20;99.90
10388;DHT22;5240;51.128;4.566;2022-12-18T14:38:26;-0.10;99.90
10388;DHT22;5240;51.128;4.566;2022-12-18T14:40:58;-0.20;99.90
10388;DHT22;5240;51.128;4.566;2022-12-18T14:43:28;-0.20;99.90
10388;DHT22;5240;51.128;4.566;2022-12-18T14:45:56;-0.20;99.90
10388;DHT22;5240;51.128;4.566;2022-12-18T14:48:35;-0.20;99.90
10388;DHT22;5240;51.128;4.566;2022-12-18T14:51:05;-0.20;99.90
10388;DHT22;5240;51.128;4.566;2022-12-18T14:53:35;-0.20;99.90
10388;DHT22;5240;51.128;4.566;2022-12-18T14:56:03;-0.20;99.90
10388;DHT22;5240;51.128;4.566;2022-12-18T14:58:45;-0.10;99.90
10388;DHT22;5240;51.128;4.566;2022-12-18T15:01:21;-0.20;99.90
10388;DHT22;5240;51.128;4.566;2022-12-18T15:03:50;-0.20;99.90
10388;DHT22;5240;51.128;4.566;2022-12-18T15:06:31;-0.10;99.90
10388;DHT22;5240;51.128;4.566;2022-12-18T15:09:00;-0.10;99.90
10388;DHT22;5240;51.128;4.566;2022-12-18T15:11:32;-0.10;99.90
10388;DHT22;5240;51.128;4.566;2022-12-18T15:14:21;-0.20;99.90
10388;DHT22;5240;51.128;4.566;2022-12-18T15:16:51;-0.20;99.90
10388;DHT22;5240;51.128;4.566;2022-12-18T15:19:20;-0.20;99.90
10388;DHT22;5240;51.128;4.566;2022-12-18T15:21:47;-0.20;99.90
10388;DHT22;5240;51.128;4.566;2022-12-18T15:24:18;-0.20;99.90
10388;DHT22;5240;51.128;4.566;2022-12-18T15:26:47;-0.20;99.90
10388;DHT22;5240;51.128;4.566;2022-12-18T15:29:21;-0.20;99.90
10388;DHT22;5240;51.128;4.566;2022-12-18T15:31:59;-0.20;99.90
10388;DHT22;5240;51.128;4.566;2022-12-18T15:34:27;-0.10;99.90
10388;DHT22;5240;51.128;4.566;2022-12-18T15:36:54;-0.10;99.90
10388;DHT22;5240;51.128;4.566;2022-12-18T15:39:21;-0.10;99.90
10388;DHT22;5240;51.128;4.566;2022-12-18T15:41:49;-0.10;99.90
10388;DHT22;5240;51.128;4.566;2022-12-18T15:44:35;-0.10;99.90
10388;DHT22;5240;51.128;4.566;2022-12-18T15:47:02;0.00;99.90
10388;DHT22;5240;51.128;4.566;2022-12-18T15:49:29;-0.10;99.90
10388;DHT22;5240;51.128;4.566;2022-12-18T15:51:59;-0.10;99.90
10388;DHT22;5240;51.128;4.566;2022-12-18T15:54:30;0.00;99.90
10388;DHT22;5240;51.128;4.566;2022-12-18T15:57:14;0.00;99.90
10388;DHT22;5240;51.128;4.566;2022-12-18T15:59:52;0.00;99.90
10388;DHT22;5240;51.128;4.566;2022-12-18T16:02:20;0.00;99.90
10388;DHT22;5240;51.128;4.566;2022-12-18T16:04:48;0.00;99.90
10388;DHT22;5240;51.128;4.566;2022-12-18T16:07:15;0.00;99.90
10388;DHT22;5240;51.128;4.566;2022-12-18T16:09:42;0.10;99.90
10388;DHT22;5240;51.128;4.566;2022-12-18T16:12:15;0.10;99.90
10388;DHT22;5240;51.128;4.566;2022-12-18T16:14:44;0.10;99.90
10388;DHT22;5240;51.128;4.566;2022-12-18T16:17:13;0.10;99.90
10388;DHT22;5240;51.128;4.566;2022-12-18T16:19:43;0.10;99.90